sensor_id;sensor_type;location;lat;lon;timestamp;P1;durP1;ratioP1;P2;durP2;ratioP2
11829;SDS011;5972;42.134;24.718;2023-10-31T00:00:34;10.25;;;6.68;;
11829;SDS011;5972;42.134;24.718;2023-10-31T00:03:02;8.65;;;6.32;;
11829;SDS011;5972;42.134;24.718;2023-10-31T00:05:29;15.20;;;6.70;;
11829;SDS011;5972;42.134;24.718;2023-10-31T00:07:55;11.88;;;6.05;;
11829;SDS011;5972;42.134;24.718;2023-10-31T00:10:22;13.75;;;7.03;;
11829;SDS011;5972;42.134;24.718;2023-10-31T00:12:49;11.32;;;6.53;;
11829;SDS011;5972;42.134;24.718;2023-10-31T00:15:16;12.05;;;7.03;;
11829;SDS011;5972;42.134;24.718;2023-10-31T00:17:42;10.93;;;6.30;;
11829;SDS011;5972;42.134;24.718;2023-10-31T00:20:11;12.57;;;6.25;;
11829;SDS011;5972;42.134;24.718;2023-10-31T00:22:37;8.45;;;6.13;;
11829;SDS011;5972;42.134;24.718;2023-10-31T00:25:04;12.40;;;6.53;;
11829;SDS011;5972;42.134;24.718;2023-10-31T00:27:31;10.48;;;6.88;;
11829;SDS011;5972;42.134;24.718;2023-10-31T00:29:58;10.88;;;6.25;;
11829;SDS011;5972;42.134;24.718;2023-10-31T00:32:25;11.55;;;6.25;;
11829;SDS011;5972;42.134;24.718;2023-10-31T00:34:51;7.25;;;5.60;;
11829;SDS011;5972;42.134;24.718;2023-10-31T00:37:20;13.18;;;6.93;;
11829;SDS011;5972;42.134;24.718;2023-10-31T00:39:46;13.45;;;6.55;;
11829;SDS011;5972;42.134;24.718;2023-10-31T00:42:13;12.65;;;6.75;;
11829;SDS011;5972;42.134;24.718;2023-10-31T00:44:40;8.35;;;6.13;;
11829;SDS011;5972;42.134;24.718;2023-10-31T00:47:07;12.52;;;7.35;;
11829;SDS011;5972;42.134;24.718;2023-10-31T00:49:33;13.55;;;7.28;;
11829;SDS011;5972;42.134;24.718;2023-10-31T00:52:00;10.40;;;6.63;;
11829;SDS011;5972;42.134;24.718;2023-10-31T00:54:28;9.45;;;6.07;;
11829;SDS011;5972;42.134;24.718;2023-10-31T00:56:55;11.82;;;6.68;;
11829;SDS011;5972;42.134;24.718;2023-10-31T00:59:22;12.60;;;6.78;;
11829;SDS011;5972;42.134;24.718;2023-10-31T01:01:49;17.58;;;6.93;;
11829;SDS011;5972;42.134;24.718;2023-10-31T01:04:15;13.63;;;6.63;;
11829;SDS011;5972;42.134;24.718;2023-10-31T01:06:42;12.98;;;7.53;;
11829;SDS011;5972;42.134;24.718;2023-10-31T01:09:09;13.35;;;6.32;;
11829;SDS011;5972;42.134;24.718;2023-10-31T01:11:37;12.27;;;6.45;;
11829;SDS011;5972;42.134;24.718;2023-10-31T01:14:04;12.05;;;6.18;;
11829;SDS011;5972;42.134;24.718;2023-10-31T01:16:31;16.08;;;7.20;;
11829;SDS011;5972;42.134;24.718;2023-10-31T01:18:58;10.82;;;6.40;;
11829;SDS011;5972;42.134;24.718;2023-10-31T01:21:24;10.70;;;6.47;;
11829;SDS011;5972;42.134;24.718;2023-10-31T01:23:51;9.75;;;6.85;;
11829;SDS011;5972;42.134;24.718;2023-10-31T01:26:18;11.75;;;6.30;;
11829;SDS011;5972;42.134;24.718;2023-10-31T01:28:46;15.38;;;7.00;;
11829;SDS011;5972;42.134;24.718;2023-10-31T01:31:13;17.70;;;7.15;;
11829;SDS011;5972;42.134;24.718;2023-10-31T01:33:39;11.82;;;6.38;;
11829;SDS011;5972;42.134;24.718;2023-10-31T01:36:06;15.75;;;6.22;;
11829;SDS011;5972;42.134;24.718;2023-10-31T01:38:35;12.07;;;6.65;;
11829;SDS011;5972;42.134;24.718;2023-10-31T01:41:02;11.00;;;6.80;;
11829;SDS011;5972;42.134;24.718;2023-10-31T01:43:29;10.60;;;6.75;;
11829;SDS011;5972;42.134;24.718;2023-10-31T01:45:58;9.40;;;6.50;;
11829;SDS011;5972;42.134;24.718;2023-10-31T01:48:25;11.60;;;6.78;;
11829;SDS011;5972;42.134;24.718;2023-10-31T01:50:54;14.80;;;6.65;;
11829;SDS011;5972;42.134;24.718;2023-10-31T01:53:22;10.23;;;6.95;;
11829;SDS011;5972;42.134;24.718;2023-10-31T01:55:50;11.65;;;6.90;;
11829;SDS011;5972;42.134;24.718;2023-10-31T01:58:18;15.45;;;7.53;;
11829;SDS011;5972;42.134;24.718;2023-10-31T02:00:49;12.13;;;6.10;;
11829;SDS011;5972;42.134;24.718;2023-10-31T02:03:18;18.77;;;6.80;;
11829;SDS011;5972;42.134;24.718;2023-10-31T02:05:45;14.88;;;7.32;;
11829;SDS011;5972;42.134;24.718;2023-10-31T02:08:12;13.88;;;6.82;;
11829;SDS011;5972;42.134;24.718;2023-10-31T02:10:39;15.90;;;6.90;;
11829;SDS011;5972;42.134;24.718;2023-10-31T02:13:12;10.20;;;6.80;;
11829;SDS011;5972;42.134;24.718;2023-10-31T02:15:39;10.48;;;6.85;;
11829;SDS011;5972;42.134;24.718;2023-10-31T02:18:06;10.70;;;6.82;;
11829;SDS011;5972;42.134;24.718;2023-10-31T02:20:36;11.50;;;7.15;;
11829;SDS011;5972;42.134;24.718;2023-10-31T02:23:04;13.32;;;7.20;;
11829;SDS011;5972;42.134;24.718;2023-10-31T02:25:31;10.35;;;7.13;;
11829;SDS011;5972;42.134;24.718;2023-10-31T02:27:58;13.25;;;7.15;;
11829;SDS011;5972;42.134;24.718;2023-10-31T02:30:25;11.43;;;6.55;;
11829;SDS011;5972;42.134;24.718;2023-10-31T02:32:51;9.45;;;6.88;;
11829;SDS011;5972;42.134;24.718;2023-10-31T02:35:18;12.00;;;7.43;;
11829;SDS011;5972;42.134;24.718;2023-10-31T02:37:45;11.18;;;6.93;;
11829;SDS011;5972;42.134;24.718;2023-10-31T02:40:13;12.70;;;6.95;;
11829;SDS011;5972;42.134;24.718;2023-10-31T02:42:40;11.48;;;6.95;;
11829;SDS011;5972;42.134;24.718;2023-10-31T02:45:07;11.20;;;7.32;;
11829;SDS011;5972;42.134;24.718;2023-10-31T02:47:34;14.57;;;7.30;;
11829;SDS011;5972;42.134;24.718;2023-10-31T02:50:01;11.75;;;7.30;;
11829;SDS011;5972;42.134;24.718;2023-10-31T02:52:28;12.48;;;7.47;;
11829;SDS011;5972;42.134;24.718;2023-10-31T02:54:55;12.55;;;7.45;;
11829;SDS011;5972;42.134;24.718;2023-10-31T02:57:23;11.55;;;7.53;;
11829;SDS011;5972;42.134;24.718;2023-10-31T02:59:50;13.98;;;7.03;;
11829;SDS011;5972;42.134;24.718;2023-10-31T03:02:16;11.02;;;6.63;;
11829;SDS011;5972;42.134;24.718;2023-10-31T03:04:43;13.65;;;6.88;;
11829;SDS011;5972;42.134;24.718;2023-10-31T03:07:10;9.27;;;7.00;;
11829;SDS011;5972;42.134;24.718;2023-10-31T03:09:37;14.60;;;7.72;;
11829;SDS011;5972;42.134;24.718;2023-10-31T03:12:04;17.40;;;7.47;;
11829;SDS011;5972;42.134;24.718;2023-10-31T03:14:32;18.55;;;7.10;;
11829;SDS011;5972;42.134;24.718;2023-10-31T03:16:59;14.10;;;7.50;;
11829;SDS011;5972;42.134;24.718;2023-10-31T03:19:26;11.30;;;7.57;;
11829;SDS011;5972;42.134;24.718;2023-10-31T03:21:52;13.48;;;7.60;;
11829;SDS011;5972;42.134;24.718;2023-10-31T03:24:19;17.75;;;7.70;;
11829;SDS011;5972;42.134;24.718;2023-10-31T03:26:46;11.00;;;7.20;;
11829;SDS011;5972;42.134;24.718;2023-10-31T03:29:13;10.45;;;7.45;;
11829;SDS011;5972;42.134;24.718;2023-10-31T03:31:41;18.73;;;7.70;;
11829;SDS011;5972;42.134;24.718;2023-10-31T03:34:08;11.93;;;7.57;;
11829;SDS011;5972;42.134;24.718;2023-10-31T03:36:35;14.80;;;7.63;;
11829;SDS011;5972;42.134;24.718;2023-10-31T03:39:01;11.55;;;7.50;;
11829;SDS011;5972;42.134;24.718;2023-10-31T03:41:28;12.00;;;7.15;;
11829;SDS011;5972;42.134;24.718;2023-10-31T03:43:55;16.73;;;8.13;;
11829;SDS011;5972;42.134;24.718;2023-10-31T03:46:22;13.23;;;7.70;;
11829;SDS011;5972;42.134;24.718;2023-10-31T03:48:50;12.32;;;7.78;;
11829;SDS011;5972;42.134;24.718;2023-10-31T03:51:16;14.30;;;7.75;;
11829;SDS011;5972;42.134;24.718;2023-10-31T03:53:43;11.02;;;7.65;;
11829;SDS011;5972;42.134;24.718;2023-10-31T03:56:10;12.38;;;7.40;;
11829;SDS011;5972;42.134;24.718;2023-10-31T03:58:37;17.20;;;7.60;;
11829;SDS011;5972;42.134;24.718;2023-10-31T04:01:04;13.27;;;7.65;;
11829;SDS011;5972;42.134;24.718;2023-10-31T04:03:31;10.82;;;7.80;;
11829;SDS011;5972;42.134;24.718;2023-10-31T04:05:59;12.90;;;7.40;;
11829;SDS011;5972;42.134;24.718;2023-10-31T04:08:26;18.27;;;8.90;;
11829;SDS011;5972;42.134;24.718;2023-10-31T04:10:52;10.93;;;7.78;;
11829;SDS011;5972;42.134;24.718;2023-10-31T04:13:19;14.45;;;8.10;;
11829;SDS011;5972;42.134;24.718;2023-10-31T04:15:46;10.65;;;7.68;;
11829;SDS011;5972;42.134;24.718;2023-10-31T04:18:13;10.38;;;7.30;;
11829;SDS011;5972;42.134;24.718;2023-10-31T04:20:40;10.35;;;7.30;;
11829;SDS011;5972;42.134;24.718;2023-10-31T04:23:08;12.55;;;8.07;;
11829;SDS011;5972;42.134;24.718;2023-10-31T04:25:36;15.40;;;7.70;;
11829;SDS011;5972;42.134;24.718;2023-10-31T04:28:03;14.95;;;7.75;;
11829;SDS011;5972;42.134;24.718;2023-10-31T04:30:30;14.27;;;7.78;;
11829;SDS011;5972;42.134;24.718;2023-10-31T04:32:57;11.43;;;7.20;;
11829;SDS011;5972;42.134;24.718;2023-10-31T04:35:23;10.77;;;7.45;;
11829;SDS011;5972;42.134;24.718;2023-10-31T04:37:50;14.00;;;7.72;;
11829;SDS011;5972;42.134;24.718;2023-10-31T04:40:18;15.48;;;8.05;;
11829;SDS011;5972;42.134;24.718;2023-10-31T04:42:46;16.63;;;7.90;;
11829;SDS011;5972;42.134;24.718;2023-10-31T04:45:13;12.35;;;7.85;;
11829;SDS011;5972;42.134;24.718;2023-10-31T04:47:40;14.18;;;7.72;;
11829;SDS011;5972;42.134;24.718;2023-10-31T04:50:07;14.15;;;7.78;;
11829;SDS011;5972;42.134;24.718;2023-10-31T04:52:35;13.40;;;7.97;;
11829;SDS011;5972;42.134;24.718;2023-10-31T04:55:01;12.32;;;8.05;;
11829;SDS011;5972;42.134;24.718;2023-10-31T04:57:30;15.27;;;8.07;;
11829;SDS011;5972;42.134;24.718;2023-10-31T04:59:56;16.55;;;8.80;;
11829;SDS011;5972;42.134;24.718;2023-10-31T05:02:24;11.00;;;8.38;;
11829;SDS011;5972;42.134;24.718;2023-10-31T05:04:51;12.27;;;8.18;;
11829;SDS011;5972;42.134;24.718;2023-10-31T05:07:17;15.10;;;8.23;;
11829;SDS011;5972;42.134;24.718;2023-10-31T05:09:44;15.57;;;8.38;;
11829;SDS011;5972;42.134;24.718;2023-10-31T05:12:11;11.10;;;8.45;;
11829;SDS011;5972;42.134;24.718;2023-10-31T05:14:40;16.90;;;8.13;;
11829;SDS011;5972;42.134;24.718;2023-10-31T05:17:07;13.82;;;7.97;;
11829;SDS011;5972;42.134;24.718;2023-10-31T05:19:34;20.45;;;8.80;;
11829;SDS011;5972;42.134;24.718;2023-10-31T05:22:01;16.60;;;8.85;;
11829;SDS011;5972;42.134;24.718;2023-10-31T05:24:27;22.00;;;8.75;;
11829;SDS011;5972;42.134;24.718;2023-10-31T05:26:54;17.70;;;7.85;;
11829;SDS011;5972;42.134;24.718;2023-10-31T05:29:21;16.15;;;8.43;;
11829;SDS011;5972;42.134;24.718;2023-10-31T05:31:49;16.88;;;8.25;;
11829;SDS011;5972;42.134;24.718;2023-10-31T05:34:16;18.25;;;8.35;;
11829;SDS011;5972;42.134;24.718;2023-10-31T05:36:43;19.30;;;8.73;;
11829;SDS011;5972;42.134;24.718;2023-10-31T05:39:10;18.52;;;8.85;;
11829;SDS011;5972;42.134;24.718;2023-10-31T05:41:36;20.98;;;8.25;;
11829;SDS011;5972;42.134;24.718;2023-10-31T05:44:03;22.67;;;8.32;;
11829;SDS011;5972;42.134;24.718;2023-10-31T05:46:32;18.13;;;8.20;;
11829;SDS011;5972;42.134;24.718;2023-10-31T05:49:05;16.13;;;7.32;;
11829;SDS011;5972;42.134;24.718;2023-10-31T05:51:32;13.98;;;7.72;;
11829;SDS011;5972;42.134;24.718;2023-10-31T05:54:00;15.88;;;7.28;;
11829;SDS011;5972;42.134;24.718;2023-10-31T05:56:27;13.55;;;7.28;;
11829;SDS011;5972;42.134;24.718;2023-10-31T05:58:54;13.32;;;6.70;;
11829;SDS011;5972;42.134;24.718;2023-10-31T06:01:21;19.48;;;8.95;;
11829;SDS011;5972;42.134;24.718;2023-10-31T06:03:47;12.90;;;6.63;;
11829;SDS011;5972;42.134;24.718;2023-10-31T06:06:15;12.57;;;7.00;;
11829;SDS011;5972;42.134;24.718;2023-10-31T06:08:42;11.32;;;6.82;;
11829;SDS011;5972;42.134;24.718;2023-10-31T06:11:10;14.93;;;7.97;;
11829;SDS011;5972;42.134;24.718;2023-10-31T06:13:37;16.67;;;7.30;;
11829;SDS011;5972;42.134;24.718;2023-10-31T06:16:04;17.45;;;7.32;;
11829;SDS011;5972;42.134;24.718;2023-10-31T06:18:32;12.38;;;7.43;;
11829;SDS011;5972;42.134;24.718;2023-10-31T06:21:00;10.50;;;7.13;;
11829;SDS011;5972;42.134;24.718;2023-10-31T06:23:28;11.27;;;7.65;;
11829;SDS011;5972;42.134;24.718;2023-10-31T06:25:54;12.27;;;7.05;;
11829;SDS011;5972;42.134;24.718;2023-10-31T06:28:21;11.85;;;7.65;;
11829;SDS011;5972;42.134;24.718;2023-10-31T06:30:49;18.48;;;8.45;;
11829;SDS011;5972;42.134;24.718;2023-10-31T06:33:16;14.57;;;8.13;;
11829;SDS011;5972;42.134;24.718;2023-10-31T06:35:42;12.85;;;7.75;;
11829;SDS011;5972;42.134;24.718;2023-10-31T06:38:09;14.45;;;8.05;;
11829;SDS011;5972;42.134;24.718;2023-10-31T06:40:37;11.55;;;7.78;;
11829;SDS011;5972;42.134;24.718;2023-10-31T06:43:05;12.27;;;7.35;;
11829;SDS011;5972;42.134;24.718;2023-10-31T06:45:32;15.63;;;7.78;;
11829;SDS011;5972;42.134;24.718;2023-10-31T06:47:58;11.60;;;7.40;;
11829;SDS011;5972;42.134;24.718;2023-10-31T06:50:25;16.25;;;7.07;;
11829;SDS011;5972;42.134;24.718;2023-10-31T06:52:52;12.93;;;6.70;;
11829;SDS011;5972;42.134;24.718;2023-10-31T06:55:18;11.77;;;6.38;;
11829;SDS011;5972;42.134;24.718;2023-10-31T06:57:47;10.77;;;6.25;;
11829;SDS011;5972;42.134;24.718;2023-10-31T07:00:14;15.55;;;6.38;;
11829;SDS011;5972;42.134;24.718;2023-10-31T07:02:41;13.05;;;6.55;;
11829;SDS011;5972;42.134;24.718;2023-10-31T07:05:08;18.48;;;6.07;;
11829;SDS011;5972;42.134;24.718;2023-10-31T07:07:35;12.85;;;6.43;;
11829;SDS011;5972;42.134;24.718;2023-10-31T07:10:02;16.48;;;6.60;;
11829;SDS011;5972;42.134;24.718;2023-10-31T07:12:29;11.20;;;6.10;;
11829;SDS011;5972;42.134;24.718;2023-10-31T07:14:58;11.77;;;6.10;;
11829;SDS011;5972;42.134;24.718;2023-10-31T07:17:25;25.02;;;7.00;;
11829;SDS011;5972;42.134;24.718;2023-10-31T07:19:51;13.35;;;5.68;;
11829;SDS011;5972;42.134;24.718;2023-10-31T07:22:18;10.38;;;5.90;;
11829;SDS011;5972;42.134;24.718;2023-10-31T07:24:45;15.18;;;5.53;;
11829;SDS011;5972;42.134;24.718;2023-10-31T07:27:12;11.43;;;6.28;;
11829;SDS011;5972;42.134;24.718;2023-10-31T07:29:39;13.20;;;5.82;;
11829;SDS011;5972;42.134;24.718;2023-10-31T07:32:08;14.02;;;6.38;;
11829;SDS011;5972;42.134;24.718;2023-10-31T07:34:35;15.73;;;6.05;;
11829;SDS011;5972;42.134;24.718;2023-10-31T07:37:01;11.50;;;6.07;;
11829;SDS011;5972;42.134;24.718;2023-10-31T07:39:28;12.57;;;6.45;;
11829;SDS011;5972;42.134;24.718;2023-10-31T07:41:55;14.38;;;6.45;;
11829;SDS011;5972;42.134;24.718;2023-10-31T07:44:22;14.07;;;6.05;;
11829;SDS011;5972;42.134;24.718;2023-10-31T07:46:49;15.75;;;5.65;;
11829;SDS011;5972;42.134;24.718;2023-10-31T07:49:17;8.85;;;5.25;;
11829;SDS011;5972;42.134;24.718;2023-10-31T07:51:44;12.48;;;6.32;;
11829;SDS011;5972;42.134;24.718;2023-10-31T07:54:12;9.88;;;5.53;;
11829;SDS011;5972;42.134;24.718;2023-10-31T07:56:39;13.43;;;6.13;;
11829;SDS011;5972;42.134;24.718;2023-10-31T07:59:06;9.77;;;5.50;;
11829;SDS011;5972;42.134;24.718;2023-10-31T08:01:33;14.48;;;6.40;;
11829;SDS011;5972;42.134;24.718;2023-10-31T08:04:00;10.43;;;6.20;;
11829;SDS011;5972;42.134;24.718;2023-10-31T08:06:28;11.88;;;5.72;;
11829;SDS011;5972;42.134;24.718;2023-10-31T08:08:55;13.02;;;6.07;;
11829;SDS011;5972;42.134;24.718;2023-10-31T08:11:22;11.10;;;5.70;;
11829;SDS011;5972;42.134;24.718;2023-10-31T08:13:49;9.07;;;5.70;;
11829;SDS011;5972;42.134;24.718;2023-10-31T08:16:16;10.07;;;5.30;;
11829;SDS011;5972;42.134;24.718;2023-10-31T08:18:44;14.15;;;5.05;;
11829;SDS011;5972;42.134;24.718;2023-10-31T08:21:11;10.30;;;5.22;;
11829;SDS011;5972;42.134;24.718;2023-10-31T08:23:39;10.18;;;5.00;;
11829;SDS011;5972;42.134;24.718;2023-10-31T08:26:06;10.75;;;5.43;;
11829;SDS011;5972;42.134;24.718;2023-10-31T08:28:33;13.07;;;5.38;;
11829;SDS011;5972;42.134;24.718;2023-10-31T08:31:00;12.20;;;5.85;;
11829;SDS011;5972;42.134;24.718;2023-10-31T08:33:28;10.05;;;5.32;;
11829;SDS011;5972;42.134;24.718;2023-10-31T08:35:55;13.68;;;5.68;;
11829;SDS011;5972;42.134;24.718;2023-10-31T08:38:22;10.00;;;5.00;;
11829;SDS011;5972;42.134;24.718;2023-10-31T08:40:50;9.95;;;5.85;;
11829;SDS011;5972;42.134;24.718;2023-10-31T08:43:17;9.55;;;5.13;;
11829;SDS011;5972;42.134;24.718;2023-10-31T08:45:44;9.45;;;5.07;;
11829;SDS011;5972;42.134;24.718;2023-10-31T08:48:10;14.05;;;5.10;;
11829;SDS011;5972;42.134;24.718;2023-10-31T08:50:37;11.52;;;4.63;;
11829;SDS011;5972;42.134;24.718;2023-10-31T08:53:04;10.05;;;4.72;;
11829;SDS011;5972;42.134;24.718;2023-10-31T08:55:31;15.05;;;4.63;;
11829;SDS011;5972;42.134;24.718;2023-10-31T08:57:59;12.98;;;4.57;;
11829;SDS011;5972;42.134;24.718;2023-10-31T09:00:26;12.75;;;4.45;;
11829;SDS011;5972;42.134;24.718;2023-10-31T09:02:54;13.57;;;4.63;;
11829;SDS011;5972;42.134;24.718;2023-10-31T09:05:20;9.25;;;3.88;;
11829;SDS011;5972;42.134;24.718;2023-10-31T09:07:47;11.07;;;4.60;;
11829;SDS011;5972;42.134;24.718;2023-10-31T09:10:14;14.80;;;4.50;;
11829;SDS011;5972;42.134;24.718;2023-10-31T09:12:41;11.68;;;4.28;;
11829;SDS011;5972;42.134;24.718;2023-10-31T09:15:09;11.18;;;4.18;;
11829;SDS011;5972;42.134;24.718;2023-10-31T09:17:38;13.10;;;3.95;;
11829;SDS011;5972;42.134;24.718;2023-10-31T09:20:05;9.68;;;3.60;;
11829;SDS011;5972;42.134;24.718;2023-10-31T09:22:33;5.78;;;3.78;;
11829;SDS011;5972;42.134;24.718;2023-10-31T09:25:00;11.70;;;3.45;;
11829;SDS011;5972;42.134;24.718;2023-10-31T09:27:27;9.15;;;3.83;;
11829;SDS011;5972;42.134;24.718;2023-10-31T09:29:54;6.70;;;3.88;;
11829;SDS011;5972;42.134;24.718;2023-10-31T09:32:22;13.00;;;4.22;;
11829;SDS011;5972;42.134;24.718;2023-10-31T09:34:49;12.52;;;3.65;;
11829;SDS011;5972;42.134;24.718;2023-10-31T09:37:16;12.10;;;4.13;;
11829;SDS011;5972;42.134;24.718;2023-10-31T09:39:43;11.40;;;4.07;;
11829;SDS011;5972;42.134;24.718;2023-10-31T09:42:10;15.95;;;3.70;;
11829;SDS011;5972;42.134;24.718;2023-10-31T09:44:55;13.00;;;4.43;;
11829;SDS011;5972;42.134;24.718;2023-10-31T09:47:23;10.13;;;3.85;;
11829;SDS011;5972;42.134;24.718;2023-10-31T09:49:50;7.80;;;3.60;;
11829;SDS011;5972;42.134;24.718;2023-10-31T09:52:19;10.23;;;3.95;;
11829;SDS011;5972;42.134;24.718;2023-10-31T09:54:46;14.45;;;3.85;;
11829;SDS011;5972;42.134;24.718;2023-10-31T09:57:15;8.13;;;3.60;;
11829;SDS011;5972;42.134;24.718;2023-10-31T09:59:43;6.07;;;3.50;;
11829;SDS011;5972;42.134;24.718;2023-10-31T10:02:10;7.55;;;3.60;;
11829;SDS011;5972;42.134;24.718;2023-10-31T10:04:38;10.52;;;3.80;;
11829;SDS011;5972;42.134;24.718;2023-10-31T10:07:05;11.18;;;4.53;;
11829;SDS011;5972;42.134;24.718;2023-10-31T10:09:32;14.07;;;4.97;;
11829;SDS011;5972;42.134;24.718;2023-10-31T10:11:59;16.33;;;4.78;;
11829;SDS011;5972;42.134;24.718;2023-10-31T10:14:26;14.13;;;4.32;;
11829;SDS011;5972;42.134;24.718;2023-10-31T10:16:56;20.45;;;4.80;;
11829;SDS011;5972;42.134;24.718;2023-10-31T10:19:24;12.95;;;4.82;;
11829;SDS011;5972;42.134;24.718;2023-10-31T10:21:53;13.85;;;4.70;;
11829;SDS011;5972;42.134;24.718;2023-10-31T10:24:21;13.82;;;5.20;;
11829;SDS011;5972;42.134;24.718;2023-10-31T10:26:49;15.75;;;4.72;;
11829;SDS011;5972;42.134;24.718;2023-10-31T10:29:16;11.90;;;4.60;;
11829;SDS011;5972;42.134;24.718;2023-10-31T10:31:44;9.70;;;4.63;;
11829;SDS011;5972;42.134;24.718;2023-10-31T10:34:11;15.23;;;4.25;;
11829;SDS011;5972;42.134;24.718;2023-10-31T10:36:40;11.57;;;4.38;;
11829;SDS011;5972;42.134;24.718;2023-10-31T10:39:13;14.93;;;4.55;;
11829;SDS011;5972;42.134;24.718;2023-10-31T10:41:45;11.45;;;4.70;;
11829;SDS011;5972;42.134;24.718;2023-10-31T10:44:19;11.15;;;4.40;;
11829;SDS011;5972;42.134;24.718;2023-10-31T10:46:51;10.15;;;4.35;;
11829;SDS011;5972;42.134;24.718;2023-10-31T10:49:22;8.27;;;4.57;;
11829;SDS011;5972;42.134;24.718;2023-10-31T10:51:52;9.60;;;4.57;;
11829;SDS011;5972;42.134;24.718;2023-10-31T10:54:25;9.75;;;4.22;;
11829;SDS011;5972;42.134;24.718;2023-10-31T10:56:59;14.10;;;4.65;;
11829;SDS011;5972;42.134;24.718;2023-10-31T10:59:37;12.93;;;5.03;;
11829;SDS011;5972;42.134;24.718;2023-10-31T11:02:07;12.15;;;5.05;;
11829;SDS011;5972;42.134;24.718;2023-10-31T11:04:35;7.60;;;4.22;;
11829;SDS011;5972;42.134;24.718;2023-10-31T11:07:03;14.57;;;4.63;;
11829;SDS011;5972;42.134;24.718;2023-10-31T11:09:32;17.77;;;4.30;;
11829;SDS011;5972;42.134;24.718;2023-10-31T11:11:59;12.32;;;4.10;;
11829;SDS011;5972;42.134;24.718;2023-10-31T11:14:27;13.23;;;4.40;;
11829;SDS011;5972;42.134;24.718;2023-10-31T11:16:56;13.93;;;4.70;;
11829;SDS011;5972;42.134;24.718;2023-10-31T11:19:27;12.90;;;4.05;;
11829;SDS011;5972;42.134;24.718;2023-10-31T11:21:55;10.82;;;3.63;;
11829;SDS011;5972;42.134;24.718;2023-10-31T11:24:26;12.95;;;3.78;;
11829;SDS011;5972;42.134;24.718;2023-10-31T11:26:58;11.02;;;4.40;;
11829;SDS011;5972;42.134;24.718;2023-10-31T11:29:26;11.15;;;4.30;;
11829;SDS011;5972;42.134;24.718;2023-10-31T11:31:53;9.77;;;3.97;;
11829;SDS011;5972;42.134;24.718;2023-10-31T11:34:21;8.88;;;3.95;;
11829;SDS011;5972;42.134;24.718;2023-10-31T11:36:48;11.75;;;4.60;;
11829;SDS011;5972;42.134;24.718;2023-10-31T11:39:18;19.17;;;4.57;;
11829;SDS011;5972;42.134;24.718;2023-10-31T11:41:48;8.40;;;4.22;;
11829;SDS011;5972;42.134;24.718;2023-10-31T11:44:17;10.70;;;4.10;;
11829;SDS011;5972;42.134;24.718;2023-10-31T11:46:44;7.20;;;3.92;;
11829;SDS011;5972;42.134;24.718;2023-10-31T11:49:15;11.13;;;3.97;;
11829;SDS011;5972;42.134;24.718;2023-10-31T11:51:44;10.82;;;4.15;;
11829;SDS011;5972;42.134;24.718;2023-10-31T11:54:11;11.23;;;4.68;;
11829;SDS011;5972;42.134;24.718;2023-10-31T11:56:39;11.10;;;4.40;;
11829;SDS011;5972;42.134;24.718;2023-10-31T11:59:06;10.68;;;4.00;;
11829;SDS011;5972;42.134;24.718;2023-10-31T12:01:34;8.05;;;3.80;;
11829;SDS011;5972;42.134;24.718;2023-10-31T12:04:20;11.07;;;4.00;;
11829;SDS011;5972;42.134;24.718;2023-10-31T12:06:56;12.05;;;4.50;;
11829;SDS011;5972;42.134;24.718;2023-10-31T12:09:23;10.35;;;3.80;;
11829;SDS011;5972;42.134;24.718;2023-10-31T12:11:50;11.05;;;3.60;;
11829;SDS011;5972;42.134;24.718;2023-10-31T12:14:18;7.80;;;3.92;;
11829;SDS011;5972;42.134;24.718;2023-10-31T12:16:46;9.63;;;4.13;;
11829;SDS011;5972;42.134;24.718;2023-10-31T12:19:13;11.02;;;4.00;;
11829;SDS011;5972;42.134;24.718;2023-10-31T12:21:40;19.60;;;4.28;;
11829;SDS011;5972;42.134;24.718;2023-10-31T12:24:08;16.48;;;5.40;;
11829;SDS011;5972;42.134;24.718;2023-10-31T12:26:36;16.45;;;4.60;;
11829;SDS011;5972;42.134;24.718;2023-10-31T12:29:07;16.77;;;5.07;;
11829;SDS011;5972;42.134;24.718;2023-10-31T12:31:44;8.77;;;4.47;;
11829;SDS011;5972;42.134;24.718;2023-10-31T12:34:14;14.05;;;4.85;;
11829;SDS011;5972;42.134;24.718;2023-10-31T12:36:41;9.90;;;4.53;;
11829;SDS011;5972;42.134;24.718;2023-10-31T12:39:10;9.50;;;4.32;;
11829;SDS011;5972;42.134;24.718;2023-10-31T12:41:38;9.57;;;4.30;;
11829;SDS011;5972;42.134;24.718;2023-10-31T12:44:05;15.52;;;4.50;;
11829;SDS011;5972;42.134;24.718;2023-10-31T12:46:34;13.55;;;4.55;;
11829;SDS011;5972;42.134;24.718;2023-10-31T12:49:01;16.02;;;4.72;;
11829;SDS011;5972;42.134;24.718;2023-10-31T12:51:29;9.77;;;4.78;;
11829;SDS011;5972;42.134;24.718;2023-10-31T12:53:56;10.85;;;4.60;;
11829;SDS011;5972;42.134;24.718;2023-10-31T12:56:38;17.45;;;4.32;;
11829;SDS011;5972;42.134;24.718;2023-10-31T12:59:07;11.05;;;4.30;;
11829;SDS011;5972;42.134;24.718;2023-10-31T13:01:35;19.98;;;4.25;;
11829;SDS011;5972;42.134;24.718;2023-10-31T13:04:02;9.75;;;4.10;;
11829;SDS011;5972;42.134;24.718;2023-10-31T13:06:31;12.40;;;3.95;;
11829;SDS011;5972;42.134;24.718;2023-10-31T13:08:58;13.02;;;4.15;;
11829;SDS011;5972;42.134;24.718;2023-10-31T13:11:28;10.55;;;4.20;;
11829;SDS011;5972;42.134;24.718;2023-10-31T13:13:55;14.23;;;4.07;;
11829;SDS011;5972;42.134;24.718;2023-10-31T13:16:22;9.40;;;4.30;;
11829;SDS011;5972;42.134;24.718;2023-10-31T13:18:51;12.13;;;4.32;;
11829;SDS011;5972;42.134;24.718;2023-10-31T13:21:18;12.00;;;4.07;;
11829;SDS011;5972;42.134;24.718;2023-10-31T13:23:46;16.02;;;4.25;;
11829;SDS011;5972;42.134;24.718;2023-10-31T13:26:13;13.88;;;4.40;;
11829;SDS011;5972;42.134;24.718;2023-10-31T13:28:40;11.63;;;3.72;;
11829;SDS011;5972;42.134;24.718;2023-10-31T13:31:07;7.18;;;4.30;;
11829;SDS011;5972;42.134;24.718;2023-10-31T13:33:36;16.00;;;4.75;;
11829;SDS011;5972;42.134;24.718;2023-10-31T13:36:03;10.93;;;5.45;;
11829;SDS011;5972;42.134;24.718;2023-10-31T13:38:30;16.08;;;5.50;;
11829;SDS011;5972;42.134;24.718;2023-10-31T13:40:58;16.38;;;5.40;;
11829;SDS011;5972;42.134;24.718;2023-10-31T13:43:26;17.60;;;5.88;;
11829;SDS011;5972;42.134;24.718;2023-10-31T13:45:53;21.17;;;6.70;;
11829;SDS011;5972;42.134;24.718;2023-10-31T13:48:19;17.08;;;6.00;;
11829;SDS011;5972;42.134;24.718;2023-10-31T13:50:46;14.07;;;5.55;;
11829;SDS011;5972;42.134;24.718;2023-10-31T13:53:13;14.43;;;5.80;;
11829;SDS011;5972;42.134;24.718;2023-10-31T13:55:40;13.05;;;5.97;;
11829;SDS011;5972;42.134;24.718;2023-10-31T13:58:09;10.65;;;5.32;;
11829;SDS011;5972;42.134;24.718;2023-10-31T14:00:35;9.82;;;5.32;;
11829;SDS011;5972;42.134;24.718;2023-10-31T14:03:02;11.60;;;5.20;;
11829;SDS011;5972;42.134;24.718;2023-10-31T14:05:29;16.20;;;4.68;;
11829;SDS011;5972;42.134;24.718;2023-10-31T14:07:56;9.60;;;4.82;;
11829;SDS011;5972;42.134;24.718;2023-10-31T14:10:23;10.82;;;4.60;;
11829;SDS011;5972;42.134;24.718;2023-10-31T14:12:50;13.90;;;4.90;;
11829;SDS011;5972;42.134;24.718;2023-10-31T14:15:19;11.30;;;4.65;;
11829;SDS011;5972;42.134;24.718;2023-10-31T14:17:47;13.70;;;4.68;;
11829;SDS011;5972;42.134;24.718;2023-10-31T14:20:14;14.45;;;4.38;;
11829;SDS011;5972;42.134;24.718;2023-10-31T14:22:42;15.73;;;4.60;;
11829;SDS011;5972;42.134;24.718;2023-10-31T14:25:13;9.43;;;4.30;;
11829;SDS011;5972;42.134;24.718;2023-10-31T14:27:40;17.85;;;5.13;;
11829;SDS011;5972;42.134;24.718;2023-10-31T14:30:07;13.70;;;4.95;;
11829;SDS011;5972;42.134;24.718;2023-10-31T14:32:36;12.90;;;4.85;;
11829;SDS011;5972;42.134;24.718;2023-10-31T14:35:03;16.02;;;5.28;;
11829;SDS011;5972;42.134;24.718;2023-10-31T14:37:31;13.65;;;5.15;;